createdAt,value
2022-08-09T00:01:05.356Z,100.00
2022-08-09T00:04:03.732Z,100.00
2022-08-09T00:06:24.990Z,100.00
2022-08-09T00:08:52.072Z,100.00
2022-08-09T00:11:24.895Z,100.00
2022-08-09T00:13:54.099Z,100.00
2022-08-09T00:16:26.364Z,100.00
2022-08-09T00:19:03.254Z,100.00
2022-08-09T00:21:37.612Z,100.00
2022-08-09T00:24:09.659Z,100.00
2022-08-09T00:26:36.739Z,100.00
2022-08-09T00:29:03.560Z,100.00
2022-08-09T00:32:00.665Z,100.00
2022-08-09T00:34:25.254Z,100.00
2022-08-09T00:36:53.880Z,100.00
2022-08-09T00:40:13.334Z,100.00
2022-08-09T00:44:10.445Z,100.00
2022-08-09T00:44:53.746Z,100.00
2022-08-09T00:47:20.235Z,100.00
2022-08-09T00:49:55.245Z,100.00
2022-08-09T00:52:30.000Z,100.00
2022-08-09T00:54:57.552Z,100.00
2022-08-09T00:57:24.693Z,100.00
2022-08-09T01:00:00.719Z,100.00
2022-08-09T01:02:29.984Z,100.00
2022-08-09T01:05:01.204Z,100.00
2022-08-09T01:07:37.705Z,100.00
2022-08-09T01:10:25.952Z,100.00
2022-08-09T01:12:56.619Z,100.00
2022-08-09T01:15:25.508Z,100.00
2022-08-09T01:17:57.600Z,100.00
2022-08-09T01:20:29.100Z,100.00
2022-08-09T01:23:04.799Z,100.00
2022-08-09T01:26:05.422Z,100.00
2022-08-09T01:28:35.213Z,100.00
2022-08-09T01:31:06.300Z,100.00
2022-08-09T01:33:36.923Z,100.00
2022-08-09T01:36:04.943Z,100.00
2022-08-09T01:38:33.724Z,100.00
2022-08-09T01:41:05.053Z,100.00
2022-08-09T01:43:47.962Z,100.00
2022-08-09T01:46:25.055Z,100.00
2022-08-09T01:48:54.256Z,100.00
2022-08-09T01:51:22.749Z,100.00
2022-08-09T01:53:49.923Z,100.00
2022-08-09T01:56:21.075Z,100.00
2022-08-09T01:58:50.255Z,100.00
2022-08-09T02:01:18.782Z,100.00
2022-08-09T02:03:45.860Z,100.00
2022-08-09T02:06:14.851Z,100.00
2022-08-09T02:08:58.525Z,100.00
2022-08-09T02:11:41.956Z,100.00
2022-08-09T02:14:11.083Z,100.00
2022-08-09T02:16:59.040Z,100.00
2022-08-09T02:19:43.225Z,100.00
2022-08-09T02:22:13.387Z,100.00
2022-08-09T02:24:41.872Z,100.00
2022-08-09T02:27:09.619Z,100.00
2022-08-09T02:29:44.982Z,100.00
2022-08-09T02:32:16.706Z,100.00
2022-08-09T02:34:55.618Z,100.00
2022-08-09T02:37:24.825Z,100.00
2022-08-09T02:40:03.136Z,100.00
2022-08-09T02:42:31.241Z,100.00
2022-08-09T02:45:02.286Z,100.00
2022-08-09T02:47:33.704Z,100.00
2022-08-09T02:50:15.826Z,100.00
2022-08-09T02:52:46.456Z,100.00
2022-08-09T02:55:20.607Z,100.00
2022-08-09T02:58:00.646Z,100.00
2022-08-09T03:00:39.544Z,100.00
2022-08-09T03:04:05.736Z,100.00
2022-08-09T03:06:10.254Z,100.00
2022-08-09T03:08:37.374Z,100.00
2022-08-09T03:11:03.986Z,100.00
2022-08-09T03:13:43.627Z,100.00
2022-08-09T03:16:19.035Z,100.00
2022-08-09T03:18:46.343Z,100.00
2022-08-09T03:21:18.826Z,100.00
2022-08-09T03:24:04.327Z,100.00
2022-08-09T03:26:32.286Z,100.00
2022-08-09T03:28:59.194Z,100.00
2022-08-09T03:31:27.281Z,100.00
2022-08-09T03:33:56.604Z,100.00
2022-08-09T03:36:27.831Z,100.00
2022-08-09T03:38:54.900Z,100.00
2022-08-09T03:41:30.279Z,100.00
2022-08-09T03:44:09.272Z,100.00
2022-08-09T03:46:37.664Z,100.00
2022-08-09T03:49:08.033Z,100.00
2022-08-09T03:51:56.665Z,100.00
2022-08-09T03:54:29.097Z,100.00
2022-08-09T03:56:57.934Z,100.00
2022-08-09T03:59:27.522Z,100.00
2022-08-09T04:02:11.069Z,100.00
2022-08-09T04:04:40.667Z,100.00
2022-08-09T04:07:12.117Z,100.00
2022-08-09T04:09:41.757Z,100.00
2022-08-09T04:12:32.682Z,100.00
2022-08-09T04:15:02.075Z,100.00
2022-08-09T04:17:39.362Z,100.00
2022-08-09T04:20:09.682Z,100.00
2022-08-09T04:22:37.364Z,100.00
2022-08-09T04:25:08.287Z,100.00
2022-08-09T04:27:37.835Z,100.00
2022-08-09T04:30:04.694Z,100.00
2022-08-09T04:32:31.599Z,100.00
2022-08-09T04:35:01.648Z,100.00
2022-08-09T04:37:45.647Z,100.00
2022-08-09T04:40:19.351Z,100.00
2022-08-09T04:42:59.924Z,100.00
2022-08-09T04:45:30.436Z,100.00
2022-08-09T04:48:01.041Z,100.00
2022-08-09T04:50:34.937Z,100.00
2022-08-09T04:53:05.007Z,100.00
2022-08-09T04:55:35.410Z,100.00
2022-08-09T04:58:17.611Z,100.00
2022-08-09T05:00:44.492Z,100.00
2022-08-09T05:03:12.887Z,100.00
2022-08-09T05:06:06.526Z,100.00
2022-08-09T05:08:33.910Z,100.00
2022-08-09T05:11:01.177Z,100.00
2022-08-09T05:13:29.000Z,100.00
2022-08-09T05:15:59.488Z,100.00
2022-08-09T05:18:55.541Z,100.00
2022-08-09T05:21:20.787Z,100.00
2022-08-09T05:23:59.593Z,100.00
2022-08-09T05:26:36.434Z,100.00
2022-08-09T05:29:17.214Z,100.00
2022-08-09T05:31:49.170Z,100.00
2022-08-09T05:34:22.762Z,100.00
2022-08-09T05:36:58.128Z,100.00
2022-08-09T05:39:29.061Z,100.00
2022-08-09T05:41:56.504Z,100.00
2022-08-09T05:44:32.251Z,100.00
2022-08-09T05:46:58.892Z,100.00
2022-08-09T05:50:15.586Z,100.00
2022-08-09T05:52:13.111Z,100.00
2022-08-09T05:54:39.822Z,100.00
2022-08-09T05:57:07.403Z,100.00
2022-08-09T05:59:39.188Z,100.00
2022-08-09T06:02:05.512Z,100.00
2022-08-09T06:04:34.957Z,100.00
2022-08-09T06:07:01.564Z,100.00
2022-08-09T06:09:55.045Z,100.00
2022-08-09T06:12:15.519Z,100.00
2022-08-09T06:14:43.478Z,100.00
2022-08-09T06:17:10.234Z,100.00
2022-08-09T06:19:36.675Z,100.00
2022-08-09T06:22:03.493Z,100.00
2022-08-09T06:24:31.251Z,100.00
2022-08-09T06:26:57.639Z,100.00
2022-08-09T06:29:24.401Z,100.00
2022-08-09T06:32:08.557Z,100.00
2022-08-09T06:34:39.430Z,100.00
2022-08-09T06:37:06.596Z,100.00
2022-08-09T06:39:49.007Z,100.00
2022-08-09T06:42:24.440Z,100.00
2022-08-09T06:44:54.071Z,100.00
2022-08-09T06:47:21.158Z,100.00
2022-08-09T06:50:14.606Z,100.00
2022-08-09T06:52:34.311Z,100.00
2022-08-09T06:55:12.577Z,100.00
2022-08-09T06:58:01.228Z,100.00
2022-08-09T07:00:52.034Z,100.00
2022-08-09T07:03:11.782Z,100.00
2022-08-09T07:06:02.458Z,100.00
2022-08-09T07:08:24.813Z,100.00
2022-08-09T07:10:52.787Z,100.00
2022-08-09T07:13:28.167Z,100.00
2022-08-09T07:16:42.831Z,100.00
2022-08-09T07:18:42.188Z,100.00
2022-08-09T07:21:09.312Z,100.00
2022-08-09T07:23:36.567Z,100.00
2022-08-09T07:26:24.225Z,100.00
2022-08-09T07:29:08.541Z,100.00
2022-08-09T07:31:38.642Z,100.00
2022-08-09T07:34:15.038Z,100.00
2022-08-09T07:36:47.472Z,100.00
2022-08-09T07:39:20.639Z,100.00
2022-08-09T07:42:01.428Z,100.00
2022-08-09T07:44:33.107Z,100.00
2022-08-09T07:47:15.752Z,100.00
2022-08-09T07:50:04.694Z,100.00
2022-08-09T07:52:29.387Z,100.00
2022-08-09T07:54:56.612Z,100.00
2022-08-09T07:57:33.813Z,100.00
2022-08-09T08:00:02.865Z,100.00
2022-08-09T08:02:30.447Z,100.00
2022-08-09T08:04:56.851Z,100.00
2022-08-09T08:08:43.055Z,100.00
2022-08-09T08:10:11.482Z,100.00
2022-08-09T08:12:43.158Z,100.00
2022-08-09T08:15:11.802Z,100.00
2022-08-09T08:17:53.350Z,100.00
2022-08-09T08:20:29.217Z,100.00
2022-08-09T08:23:03.735Z,100.00
2022-08-09T08:25:43.902Z,100.00
2022-08-09T08:28:14.136Z,100.00
2022-08-09T08:30:41.381Z,100.00
2022-08-09T08:33:11.774Z,100.00
2022-08-09T08:35:58.743Z,100.00
2022-08-09T08:38:25.165Z,100.00
2022-08-09T08:40:52.826Z,100.00
2022-08-09T08:43:20.499Z,100.00
2022-08-09T08:45:53.290Z,100.00
2022-08-09T08:48:21.610Z,100.00
2022-08-09T08:50:49.296Z,100.00
2022-08-09T08:53:22.051Z,100.00
2022-08-09T08:55:48.791Z,100.00
2022-08-09T08:58:27.126Z,100.00
2022-08-09T09:00:56.380Z,100.00
2022-08-09T09:03:33.304Z,100.00
2022-08-09T09:06:05.400Z,100.00
2022-08-09T09:08:37.842Z,100.00
2022-08-09T09:11:08.490Z,100.00
2022-08-09T09:13:55.429Z,100.00
2022-08-09T09:16:30.457Z,100.00
2022-08-09T09:19:21.586Z,100.00
2022-08-09T09:22:03.946Z,100.00
2022-08-09T09:24:32.783Z,100.00
2022-08-09T09:27:01.613Z,100.00
2022-08-09T09:29:46.060Z,100.00
2022-08-09T09:32:20.363Z,100.00
2022-08-09T09:35:02.479Z,100.00
2022-08-09T09:37:31.851Z,100.00
2022-08-09T09:39:59.602Z,100.00
2022-08-09T09:42:29.798Z,100.00
2022-08-09T09:44:59.704Z,100.00
2022-08-09T09:47:28.295Z,100.00
2022-08-09T09:50:13.208Z,100.00
2022-08-09T09:52:52.349Z,100.00
2022-08-09T09:55:28.130Z,100.00
2022-08-09T09:58:03.628Z,100.00
2022-08-09T10:00:34.497Z,100.00
2022-08-09T10:03:00.952Z,100.00
2022-08-09T10:06:00.731Z,100.00
2022-08-09T10:08:30.510Z,100.00
2022-08-09T10:10:58.505Z,100.00
2022-08-09T10:13:45.059Z,100.00
2022-08-09T10:16:56.522Z,100.00
2022-08-09T10:19:00.287Z,100.00
2022-08-09T10:21:27.030Z,100.00
2022-08-09T10:23:53.578Z,100.00
2022-08-09T10:26:20.338Z,100.00
2022-08-09T10:29:35.902Z,100.00
2022-08-09T10:34:33.955Z,100.00
2022-08-09T10:37:02.253Z,100.00
2022-08-09T10:39:29.710Z,100.00
2022-08-09T10:41:56.114Z,100.00
2022-08-09T10:44:24.985Z,100.00
2022-08-09T10:48:12.312Z,100.00
2022-08-09T10:50:15.038Z,100.00
2022-08-09T10:52:56.213Z,100.00
2022-08-09T10:55:23.578Z,100.00
2022-08-09T10:57:51.990Z,100.00
2022-08-09T11:00:32.081Z,100.00
2022-08-09T11:03:15.717Z,100.00
2022-08-09T11:06:15.398Z,100.00
2022-08-09T11:08:47.297Z,100.00
2022-08-09T11:11:14.877Z,100.00
2022-08-09T11:13:50.530Z,100.00
2022-08-09T11:16:37.404Z,100.00
2022-08-09T11:19:09.788Z,100.00
2022-08-09T11:21:55.240Z,100.00
2022-08-09T11:24:57.980Z,100.00
2022-08-09T11:28:03.040Z,100.00
2022-08-09T11:30:33.363Z,100.00
2022-08-09T11:33:03.051Z,100.00
2022-08-09T11:35:35.266Z,100.00
2022-08-09T11:38:17.575Z,100.00
2022-08-09T11:40:45.231Z,100.00
2022-08-09T11:43:16.555Z,100.00
2022-08-09T11:45:53.491Z,100.00
2022-08-09T11:48:26.242Z,100.00
2022-08-09T11:52:36.732Z,100.00
2022-08-09T11:53:58.656Z,100.00
2022-08-09T11:56:41.904Z,100.00
2022-08-09T11:59:10.762Z,100.00
2022-08-09T12:02:18.086Z,100.00
2022-08-09T12:04:28.752Z,100.00
2022-08-09T12:07:03.850Z,100.00
2022-08-09T12:09:34.392Z,100.00
2022-08-09T12:12:04.113Z,100.00
2022-08-09T12:14:36.748Z,100.00
2022-08-09T12:17:03.938Z,100.00
2022-08-09T12:19:50.718Z,100.00
2022-08-09T12:22:17.919Z,100.00
2022-08-09T12:24:45.276Z,100.00
2022-08-09T12:28:58.818Z,100.00
2022-08-09T12:30:35.758Z,100.00
2022-08-09T12:33:00.651Z,100.00
2022-08-09T12:35:26.995Z,100.00
2022-08-09T12:37:54.174Z,100.00
2022-08-09T12:40:21.320Z,98.17
2022-08-09T12:42:51.091Z,98.46
2022-08-09T12:45:33.295Z,97.82
2022-08-09T12:48:01.741Z,92.95
2022-08-09T12:50:28.572Z,95.72
2022-08-09T12:53:17.670Z,92.30
2022-08-09T12:56:14.002Z,96.68
2022-08-09T12:58:28.586Z,91.58
2022-08-09T13:00:57.723Z,91.58
2022-08-09T13:03:40.885Z,89.32
2022-08-09T13:06:23.732Z,86.78
2022-08-09T13:08:57.431Z,87.64
2022-08-09T13:11:28.287Z,85.06
2022-08-09T13:14:11.958Z,87.32
2022-08-09T13:16:45.937Z,89.35
2022-08-09T13:19:22.264Z,86.25
2022-08-09T13:22:37.279Z,88.23
2022-08-09T13:24:44.618Z,87.03
2022-08-09T13:27:23.728Z,90.20
2022-08-09T13:30:03.570Z,85.39
2022-08-09T13:32:45.932Z,85.07
2022-08-09T13:35:16.479Z,87.52
2022-08-09T13:37:52.412Z,86.89
2022-08-09T13:41:52.251Z,87.03
2022-08-09T13:43:09.526Z,87.05
2022-08-09T13:46:44.705Z,85.26
2022-08-09T13:48:24.509Z,86.22
2022-08-09T13:50:51.041Z,85.10
2022-08-09T13:53:17.364Z,80.10
2022-08-09T13:55:44.890Z,82.56
2022-08-09T13:58:14.277Z,82.92
2022-08-09T14:00:49.910Z,82.64
2022-08-09T14:04:03.540Z,84.24
2022-08-09T14:06:14.671Z,83.59
2022-08-09T14:08:51.823Z,83.65
2022-08-09T14:11:18.983Z,82.95
2022-08-09T14:14:21.943Z,84.49
2022-08-09T14:16:32.744Z,82.51
2022-08-09T14:19:00.998Z,82.63
2022-08-09T14:21:31.993Z,83.11
2022-08-09T14:24:01.275Z,82.00
2022-08-09T14:26:36.491Z,81.52
2022-08-09T14:29:07.566Z,82.21
2022-08-09T14:31:53.481Z,82.73
2022-08-09T14:34:32.261Z,83.54
2022-08-09T14:37:01.583Z,81.67
2022-08-09T14:39:47.454Z,81.40
2022-08-09T14:42:30.657Z,82.23
2022-08-09T14:45:00.835Z,80.82
2022-08-09T14:47:41.275Z,79.08
2022-08-09T14:50:16.263Z,81.36
2022-08-09T14:52:49.994Z,75.97
2022-08-09T14:55:20.409Z,79.55
2022-08-09T14:57:47.383Z,79.71
2022-08-09T15:00:15.266Z,80.08
2022-08-09T15:02:41.599Z,78.85
2022-08-09T15:05:08.341Z,78.87
2022-08-09T15:07:35.472Z,76.00
2022-08-09T15:10:11.211Z,77.64
2022-08-09T15:12:40.748Z,76.09
2022-08-09T15:15:11.486Z,75.16
2022-08-09T15:17:42.611Z,74.98
2022-08-09T15:20:15.263Z,76.34
2022-08-09T15:22:47.081Z,75.13
2022-08-09T15:25:15.008Z,75.48
2022-08-09T15:28:01.679Z,74.83
2022-08-09T15:30:56.930Z,76.12
2022-08-09T15:33:23.215Z,78.36
2022-08-09T15:36:01.410Z,77.64
2022-08-09T15:38:28.614Z,76.27
2022-08-09T15:40:56.399Z,75.93
2022-08-09T15:43:24.835Z,75.75
2022-08-09T15:46:28.242Z,75.96
2022-08-09T15:49:20.463Z,76.66
2022-08-09T15:52:02.164Z,75.62
2022-08-09T15:54:30.113Z,73.99
2022-08-09T15:56:59.214Z,72.93
2022-08-09T15:59:26.803Z,73.41
2022-08-09T16:02:03.693Z,74.55
2022-08-09T16:04:32.026Z,75.07
2022-08-09T16:07:01.835Z,75.66
2022-08-09T16:09:51.384Z,74.71
2022-08-09T16:12:16.095Z,74.46
2022-08-09T16:14:42.776Z,75.23
2022-08-09T16:17:12.170Z,74.94
2022-08-09T16:19:48.915Z,74.93
2022-08-09T16:22:16.079Z,74.06
2022-08-09T16:24:42.402Z,73.55
2022-08-09T16:27:08.711Z,73.20
2022-08-09T16:29:50.707Z,74.56
2022-08-09T16:32:35.219Z,74.06
2022-08-09T16:35:02.473Z,73.30
2022-08-09T16:37:53.640Z,74.03
2022-08-09T16:40:30.056Z,74.33
2022-08-09T16:43:02.687Z,73.55
2022-08-09T16:45:30.524Z,73.49
2022-08-09T16:48:42.196Z,75.52
2022-08-09T16:50:58.742Z,74.88
2022-08-09T16:53:32.385Z,74.22
2022-08-09T16:56:06.075Z,74.29
2022-08-09T16:58:36.765Z,74.58
2022-08-09T17:01:04.997Z,74.38
2022-08-09T17:03:31.387Z,74.43
2022-08-09T17:06:09.252Z,72.29
2022-08-09T17:08:58.163Z,72.78
2022-08-09T17:11:37.684Z,73.08
2022-08-09T17:14:08.627Z,73.17
2022-08-09T17:16:54.523Z,73.72
2022-08-09T17:19:21.175Z,72.57
2022-08-09T17:21:47.523Z,72.80
2022-08-09T17:24:27.223Z,72.90
2022-08-09T17:26:54.890Z,74.21
2022-08-09T17:29:21.217Z,74.21
2022-08-09T17:31:49.239Z,73.92
2022-08-09T17:34:59.655Z,74.19
2022-08-09T17:37:03.727Z,75.89
2022-08-09T17:39:48.238Z,76.46
2022-08-09T17:42:51.363Z,76.38
2022-08-09T17:45:03.495Z,76.10
2022-08-09T17:47:32.949Z,75.43
2022-08-09T17:50:25.047Z,75.03
2022-08-09T17:53:04.741Z,74.31
2022-08-09T17:55:49.643Z,74.83
2022-08-09T17:58:17.569Z,75.32
2022-08-09T18:00:47.972Z,75.30
2022-08-09T18:03:15.068Z,76.90
2022-08-09T18:05:45.792Z,75.86
2022-08-09T18:08:19.460Z,75.38
2022-08-09T18:11:01.013Z,74.53
2022-08-09T18:13:43.683Z,75.43
2022-08-09T18:16:16.431Z,76.80
2022-08-09T18:18:49.092Z,76.47
2022-08-09T18:21:23.662Z,77.88
2022-08-09T18:24:11.406Z,78.57
2022-08-09T18:26:37.931Z,78.07
2022-08-09T18:30:39.811Z,78.57
2022-08-09T18:31:55.153Z,79.53
2022-08-09T18:34:24.106Z,79.95
2022-08-09T18:36:53.459Z,80.23
2022-08-09T18:39:20.066Z,80.42
2022-08-09T18:41:53.130Z,80.76
2022-08-09T18:44:20.166Z,81.73
2022-08-09T18:47:05.171Z,80.88
2022-08-09T18:49:43.690Z,81.75
2022-08-09T18:52:16.708Z,82.53
2022-08-09T18:54:49.566Z,82.35
2022-08-09T18:57:19.435Z,82.92
2022-08-09T18:59:51.528Z,83.70
2022-08-09T19:02:31.678Z,83.31
2022-08-09T19:05:04.428Z,84.21
2022-08-09T19:07:59.309Z,84.89
2022-08-09T19:10:37.258Z,86.20
2022-08-09T19:13:22.368Z,87.65
2022-08-09T19:15:51.622Z,88.17
2022-08-09T19:18:33.326Z,87.77
2022-08-09T19:21:03.231Z,90.73
2022-08-09T19:24:36.191Z,91.04
2022-08-09T19:26:19.285Z,92.59
2022-08-09T19:28:55.619Z,95.12
2022-08-09T19:31:27.734Z,96.04
2022-08-09T19:33:57.013Z,96.65
2022-08-09T19:36:24.372Z,98.26
2022-08-09T19:38:58.748Z,99.28
2022-08-09T19:41:33.091Z,96.06
2022-08-09T19:44:03.149Z,99.91
2022-08-09T19:46:35.007Z,100.00
2022-08-09T19:50:06.717Z,99.23
2022-08-09T19:51:51.697Z,99.76
2022-08-09T19:54:24.980Z,100.00
2022-08-09T19:56:51.523Z,100.00
2022-08-09T19:59:39.548Z,100.00
2022-08-09T20:02:17.148Z,100.00
2022-08-09T20:04:55.062Z,100.00
2022-08-09T20:07:22.507Z,100.00
2022-08-09T20:09:50.371Z,100.00
2022-08-09T20:12:29.802Z,100.00
2022-08-09T20:15:04.879Z,100.00
2022-08-09T20:17:54.511Z,100.00
2022-08-09T20:20:21.132Z,100.00
2022-08-09T20:22:48.454Z,100.00
2022-08-09T20:25:22.620Z,100.00
2022-08-09T20:27:49.328Z,100.00
2022-08-09T20:30:17.963Z,100.00
2022-08-09T20:32:48.230Z,100.00
2022-08-09T20:35:18.447Z,100.00
2022-08-09T20:38:20.416Z,100.00
2022-08-09T20:40:32.695Z,100.00
2022-08-09T20:43:12.296Z,100.00
2022-08-09T20:45:59.228Z,100.00
2022-08-09T20:48:32.047Z,100.00
2022-08-09T20:50:58.657Z,100.00
2022-08-09T20:53:37.768Z,100.00
2022-08-09T20:56:08.970Z,100.00
2022-08-09T20:58:35.727Z,100.00
2022-08-09T21:01:32.676Z,100.00
2022-08-09T21:05:48.781Z,100.00
2022-08-09T21:06:36.227Z,100.00
2022-08-09T21:09:03.178Z,100.00
2022-08-09T21:14:17.619Z,100.00
2022-08-09T21:16:44.065Z,100.00
2022-08-09T21:20:17.854Z,100.00
2022-08-09T21:21:58.582Z,100.00
2022-08-09T21:24:28.961Z,100.00
2022-08-09T21:27:10.428Z,100.00
2022-08-09T21:29:49.127Z,100.00
2022-08-09T21:32:18.704Z,100.00
2022-08-09T21:34:49.128Z,100.00
2022-08-09T21:37:18.252Z,100.00
2022-08-09T21:39:45.009Z,100.00
2022-08-09T21:42:17.688Z,100.00
2022-08-09T21:44:54.938Z,100.00
2022-08-09T21:47:21.246Z,100.00
2022-08-09T21:49:47.610Z,100.00
2022-08-09T21:52:17.415Z,100.00
2022-08-09T21:54:49.687Z,100.00
2022-08-09T21:57:37.866Z,100.00
2022-08-09T22:00:13.174Z,100.00
2022-08-09T22:02:40.190Z,100.00
2022-08-09T22:05:22.769Z,100.00
2022-08-09T22:07:51.791Z,100.00
2022-08-09T22:10:23.253Z,100.00
2022-08-09T22:12:52.314Z,100.00
2022-08-09T22:15:18.942Z,100.00
2022-08-09T22:17:47.308Z,100.00
2022-08-09T22:20:16.908Z,100.00
2022-08-09T22:22:48.611Z,100.00
2022-08-09T22:26:07.822Z,100.00
2022-08-09T22:28:07.153Z,100.00
2022-08-09T22:30:33.895Z,100.00
2022-08-09T22:33:00.220Z,100.00
2022-08-09T22:36:02.468Z,100.00
2022-08-09T22:38:14.761Z,100.00
2022-08-09T22:40:49.131Z,100.00
2022-08-09T22:44:00.566Z,100.00
2022-08-09T22:48:14.398Z,100.00
2022-08-09T22:49:01.776Z,100.00
2022-08-09T22:51:31.876Z,100.00
2022-08-09T22:54:03.079Z,100.00
2022-08-09T22:56:33.430Z,100.00
2022-08-09T22:59:05.655Z,100.00
2022-08-09T23:01:48.531Z,100.00
2022-08-09T23:04:14.923Z,100.00
2022-08-09T23:06:42.900Z,100.00
2022-08-09T23:09:11.595Z,100.00
2022-08-09T23:11:37.881Z,100.00
2022-08-09T23:14:09.872Z,100.00
2022-08-09T23:16:36.682Z,100.00
2022-08-09T23:19:03.226Z,100.00
2022-08-09T23:21:33.446Z,100.00
2022-08-09T23:24:06.489Z,100.00
2022-08-09T23:26:33.502Z,100.00
2022-08-09T23:28:59.832Z,100.00
2022-08-09T23:31:27.506Z,100.00
2022-08-09T23:33:53.818Z,100.00
2022-08-09T23:36:20.189Z,100.00
2022-08-09T23:38:48.773Z,100.00
2022-08-09T23:41:28.308Z,100.00
2022-08-09T23:43:55.860Z,100.00
2022-08-09T23:46:22.172Z,100.00
2022-08-09T23:48:49.804Z,100.00
2022-08-09T23:51:16.121Z,100.00
2022-08-09T23:53:42.445Z,100.00
2022-08-09T23:56:08.790Z,100.00
2022-08-09T23:58:35.374Z,100.00
